Time;durP1;ratioP1;P1;durP2;ratioP2;P2;SDS_P1;SDS_P2;PMS_P1;PMS_P2;Temp;Humidity;BMP_temperature;BMP_pressure;BME280_temperature;BME280_humidity;BME280_pressure;Samples;Min_cycle;Max_cycle;Signal;HPM_P1;HPM_P2
2023/08/23 00:01:02;;;;;;;4.50;4.10;;;;;;;21.50;100.00;100475.95;177600;1262;46816;-83
2023/08/23 00:05:23;;;;;;;8.40;5.20;;;;;;;21.32;100.00;100471.31;178308;1262;44416;-83
2023/08/23 00:09:26;;;;;;;5.50;4.90;;;;;;;21.27;100.00;100456.95;178611;1260;44487;-81
2023/08/23 00:13:29;;;;;;;5.20;3.60;;;;;;;21.37;100.00;100447.51;177640;1262;57882;-83
2023/08/23 00:17:32;;;;;;;14.60;4.90;;;;;;;21.49;100.00;100454.80;177680;1261;46422;-82
2023/08/23 00:21:34;;;;;;;6.80;4.20;;;;;;;21.60;100.00;100458.93;177704;1260;45968;-78
2023/08/23 00:25:38;;;;;;;7.80;4.10;;;;;;;21.71;100.00;100466.09;177540;1261;44768;-83
2023/08/23 00:29:40;;;;;;;4.80;3.80;;;;;;;21.79;100.00;100474.70;177905;1262;45247;-82
2023/08/23 00:33:43;;;;;;;10.20;4.70;;;;;;;21.76;100.00;100481.04;177039;1261;57875;-82
2023/08/23 00:37:46;;;;;;;7.90;3.60;;;;;;;21.65;100.00;100475.69;177564;1262;46221;-83
2023/08/23 00:41:50;;;;;;;6.90;4.50;;;;;;;21.43;100.00;100470.19;178016;1261;46069;-81
2023/08/23 00:45:53;;;;;;;6.40;4.30;;;;;;;21.27;100.00;100474.52;178303;1262;46113;-82
2023/08/23 00:49:57;;;;;;;5.00;3.10;;;;;;;21.14;100.00;100482.58;177943;1261;46047;-82
2023/08/23 00:54:00;;;;;;;6.00;3.30;;;;;;;21.12;100.00;100482.59;178213;1264;59613;-82
2023/08/23 00:58:04;;;;;;;8.30;4.90;;;;;;;21.19;100.00;100489.52;176706;1261;46185;-80
2023/08/23 01:02:08;;;;;;;5.60;5.00;;;;;;;21.10;100.00;100485.08;178700;1264;46037;-83
2023/08/23 01:06:29;;;;;;;5.20;4.20;;;;;;;21.04;100.00;100483.46;177990;1260;46107;-82
2023/08/23 01:10:42;;;;;;;9.00;4.70;;;;;;;20.97;100.00;100479.76;178808;1261;45993;-83
2023/08/23 01:14:53;;;;;;;7.70;4.90;;;;;;;20.96;100.00;100478.13;179161;1262;57921;-82
2023/08/23 01:18:59;;;;;;;11.60;5.40;;;;;;;21.03;100.00;100473.26;178137;1260;45918;-83
2023/08/23 01:23:13;;;;;;;10.10;5.30;;;;;;;21.12;100.00;100469.08;178768;1265;44177;-83
2023/08/23 01:27:19;;;;;;;9.90;5.10;;;;;;;21.15;100.00;100472.55;178191;1260;43702;-82
2023/08/23 01:31:23;;;;;;;5.40;4.10;;;;;;;21.15;100.00;100472.59;177875;1261;44000;-82
2023/08/23 01:35:55;;;;;;;7.90;4.80;;;;;;;21.15;100.00;100461.86;177790;1261;57530;-83
2023/08/23 01:40:01;;;;;;;6.10;4.90;;;;;;;21.14;100.00;100465.67;177411;1260;46098;-83
2023/08/23 01:44:04;;;;;;;8.60;4.80;;;;;;;21.10;100.00;100471.13;177818;1261;46660;-80
2023/08/23 01:48:07;;;;;;;5.20;4.50;;;;;;;21.05;100.00;100471.38;177370;1262;46036;-80
2023/08/23 01:52:10;;;;;;;4.30;3.70;;;;;;;20.99;100.00;100476.79;178363;1261;46079;-80
2023/08/23 01:56:13;;;;;;;8.20;4.20;;;;;;;20.91;100.00;100481.36;177733;1261;57905;-80
2023/08/23 02:00:16;;;;;;;6.60;4.00;;;;;;;20.83;100.00;100477.55;178233;1260;46059;-79
2023/08/23 02:04:19;;;;;;;5.60;4.10;;;;;;;20.78;100.00;100471.64;177803;1261;45768;-80
2023/08/23 02:08:22;;;;;;;6.40;3.40;;;;;;;20.74;100.00;100479.33;178720;1261;46029;-80
2023/08/23 02:12:25;;;;;;;8.60;5.40;;;;;;;20.68;100.00;100477.70;178703;1260;46023;-82
2023/08/23 02:16:28;;;;;;;7.00;5.20;;;;;;;20.69;100.00;100481.38;179240;1262;57916;-82
2023/08/23 02:20:31;;;;;;;8.90;4.50;;;;;;;20.70;100.00;100484.17;177851;1261;46018;-83
2023/08/23 02:24:34;;;;;;;8.80;3.80;;;;;;;20.72;100.00;100485.48;177807;1261;45964;-83
2023/08/23 02:28:37;;;;;;;9.10;4.50;;;;;;;20.73;100.00;100477.44;177878;1261;44547;-83
2023/08/23 02:32:40;;;;;;;11.50;4.70;;;;;;;20.69;100.00;100479.52;177652;1262;46681;-82
2023/08/23 02:36:43;;;;;;;9.40;4.60;;;;;;;20.69;100.00;100482.30;178400;1262;59510;-82
2023/08/23 02:40:45;;;;;;;5.80;4.80;;;;;;;20.70;100.00;100483.42;178576;1261;44192;-82
2023/08/23 02:44:48;;;;;;;4.40;3.60;;;;;;;20.69;100.00;100481.68;177945;1265;46003;-81
2023/08/23 02:48:51;;;;;;;8.50;5.00;;;;;;;20.67;100.00;100479.66;176905;1262;46112;-81
2023/08/23 02:52:54;;;;;;;5.20;3.80;;;;;;;20.67;100.00;100488.23;177658;1261;46032;-82
2023/08/23 02:56:57;;;;;;;6.40;3.80;;;;;;;20.68;100.00;100491.76;176892;1262;57923;-83
2023/08/23 03:01:00;;;;;;;8.40;4.20;;;;;;;20.68;100.00;100489.52;178953;1262;44179;-81
2023/08/23 03:05:04;;;;;;;8.70;4.80;;;;;;;20.58;100.00;100488.34;179272;1263;45987;-82
2023/08/23 03:09:07;;;;;;;4.70;4.00;;;;;;;20.47;100.00;100490.86;177845;1262;46021;-81
2023/08/23 03:13:10;;;;;;;4.40;3.40;;;;;;;20.44;100.00;100488.02;178310;1262;45978;-81
2023/08/23 03:17:13;;;;;;;6.70;4.60;;;;;;;20.37;100.00;100486.98;178475;1265;58113;-83
2023/08/23 03:21:16;;;;;;;6.50;3.50;;;;;;;20.32;100.00;100491.76;177646;1262;46186;-80
2023/08/23 03:25:19;;;;;;;10.30;4.80;;;;;;;20.30;100.00;100489.69;177928;1262;46113;-81
2023/08/23 03:29:22;;;;;;;5.70;4.10;;;;;;;20.13;100.00;100487.33;179138;1261;46106;-81
2023/08/23 03:33:25;;;;;;;8.50;4.10;;;;;;;19.92;100.00;100493.71;177054;1263;46100;-81
2023/08/23 03:37:28;;;;;;;5.00;4.30;;;;;;;19.79;100.00;100497.80;179078;1260;58124;-77
2023/08/23 03:41:32;;;;;;;9.00;4.80;;;;;;;19.73;100.00;100503.34;180755;1258;46196;-80
2023/08/23 03:45:35;;;;;;;7.80;4.80;;;;;;;19.59;100.00;100510.19;178861;1259;44945;-81
2023/08/23 03:49:38;;;;;;;13.50;5.00;;;;;;;19.51;100.00;100509.06;178408;1260;46060;-80
2023/08/23 03:53:42;;;;;;;9.30;4.00;;;;;;;19.50;100.00;100503.96;178066;1259;45953;-81
2023/08/23 03:57:44;;;;;;;7.90;5.40;;;;;;;19.51;100.00;100504.29;177730;1262;57557;-81
2023/08/23 04:01:48;;;;;;;6.40;4.30;;;;;;;19.50;100.00;100504.90;177573;1263;46204;-81
2023/08/23 04:05:51;;;;;;;8.30;4.60;;;;;;;19.53;100.00;100505.27;177871;1259;46109;-81
2023/08/23 04:09:54;;;;;;;11.70;4.90;;;;;;;19.59;100.00;100507.46;177452;1260;45329;-80
2023/08/23 04:13:57;;;;;;;4.20;3.60;;;;;;;19.58;100.00;100504.40;177259;1259;46226;-81
2023/08/23 04:18:01;;;;;;;4.60;3.90;;;;;;;19.56;100.00;100509.44;177568;1262;58038;-81
2023/08/23 04:22:04;;;;;;;4.90;3.60;;;;;;;19.61;100.00;100516.25;179019;1260;46160;-81
2023/08/23 04:26:07;;;;;;;4.40;3.80;;;;;;;19.69;100.00;100519.13;178467;1259;45888;-81
2023/08/23 04:30:11;;;;;;;6.90;4.90;;;;;;;19.95;100.00;100508.16;177956;1259;46109;-81
2023/08/23 04:34:14;;;;;;;8.20;3.70;;;;;;;20.44;100.00;100512.13;178093;1259;45943;-80
2023/08/23 04:38:17;;;;;;;6.70;3.60;;;;;;;20.95;100.00;100510.70;178395;1262;58407;-81
2023/08/23 04:42:20;;;;;;;6.00;4.00;;;;;;;21.53;100.00;100510.95;180256;1260;44011;-81
2023/08/23 04:46:23;;;;;;;9.30;4.50;;;;;;;22.16;100.00;100515.89;177933;1260;45944;-81
2023/08/23 04:50:26;;;;;;;5.40;4.20;;;;;;;22.70;100.00;100515.05;180953;1259;43820;-80
2023/08/23 04:54:29;;;;;;;9.60;4.90;;;;;;;23.04;100.00;100516.25;180156;1259;44246;-80
2023/08/23 04:58:32;;;;;;;12.50;4.90;;;;;;;23.12;100.00;100519.98;180421;1259;57766;-81
2023/08/23 05:02:35;;;;;;;7.60;4.00;;;;;;;23.35;100.00;100522.29;180083;1260;43965;-77
2023/08/23 05:06:40;;;;;;;7.50;4.40;;;;;;;23.49;99.94;100523.84;179586;1263;45990;-76
2023/08/23 05:10:43;;;;;;;6.60;4.60;;;;;;;23.63;99.63;100524.58;180022;1260;46051;-77
2023/08/23 05:14:47;;;;;;;4.30;3.20;;;;;;;24.02;98.14;100524.75;180051;1260;43714;-76
2023/08/23 05:18:51;;;;;;;6.10;3.40;;;;;;;24.33;96.20;100520.95;179825;1260;59985;-76
2023/08/23 05:22:54;;;;;;;6.70;3.70;;;;;;;24.93;93.05;100520.48;180009;1260;43718;-76
2023/08/23 05:26:58;;;;;;;4.30;3.70;;;;;;;25.39;86.22;100525.20;179928;1259;43988;-76
2023/08/23 05:31:02;;;;;;;5.00;3.30;;;;;;;25.75;83.43;100533.63;180081;1261;46112;-77
2023/08/23 05:35:07;;;;;;;5.90;3.60;;;;;;;26.03;80.39;100530.69;180006;1260;44005;-76
2023/08/23 05:39:12;;;;;;;10.00;3.60;;;;;;;26.29;78.97;100537.05;180032;1261;60087;-77
2023/08/23 05:43:17;;;;;;;4.70;4.20;;;;;;;26.52;78.41;100535.63;180164;1260;43924;-76
2023/08/23 05:47:20;;;;;;;5.00;3.40;;;;;;;26.93;77.98;100533.23;180037;1260;45899;-76
2023/08/23 05:51:26;;;;;;;4.10;3.00;;;;;;;27.27;74.20;100540.88;180036;1259;44142;-77
2023/08/23 05:55:30;;;;;;;7.20;3.70;;;;;;;27.29;75.45;100544.25;180062;1261;44098;-77
2023/08/23 05:59:34;;;;;;;10.00;4.80;;;;;;;27.51;73.26;100540.34;180002;1260;57853;-77
2023/08/23 06:03:37;;;;;;;9.10;3.00;;;;;;;27.79;72.67;100541.96;179995;1258;193845;-80
2023/08/23 06:07:41;;;;;;;7.80;3.90;;;;;;;27.78;72.21;100539.03;179458;1262;44721;-80
2023/08/23 06:11:45;;;;;;;8.00;3.70;;;;;;;27.87;71.98;100535.27;180049;1261;87977;-78
2023/08/23 06:15:48;;;;;;;4.80;3.40;;;;;;;27.67;71.26;100542.23;179883;1259;44687;-82
2023/08/23 06:19:51;;;;;;;4.50;3.90;;;;;;;27.13;73.57;100539.30;179353;1261;58260;-80
2023/08/23 06:23:55;;;;;;;7.00;3.30;;;;;;;26.96;76.18;100535.30;180435;1257;87683;-76
2023/08/23 06:27:58;;;;;;;6.80;2.80;;;;;;;26.99;75.07;100535.06;180178;1259;44633;-77
2023/08/23 06:32:04;;;;;;;4.20;3.00;;;;;;;27.31;75.77;100532.80;180174;1260;43888;-76
2023/08/23 06:36:09;;;;;;;7.30;3.80;;;;;;;27.36;72.09;100531.77;180261;1260;44605;-76
2023/08/23 06:40:14;;;;;;;5.50;3.80;;;;;;;27.20;73.51;100528.75;180014;1261;58707;-76
2023/08/23 06:44:17;;;;;;;4.40;3.20;;;;;;;27.21;74.51;100526.93;179973;1261;46089;-75
2023/08/23 06:48:22;;;;;;;4.50;3.70;;;;;;;27.04;72.80;100524.71;180119;1261;46026;-76
2023/08/23 06:52:25;;;;;;;8.20;3.40;;;;;;;27.19;72.94;100522.89;180004;1260;45495;-77
2023/08/23 06:56:29;;;;;;;4.70;2.80;;;;;;;27.50;69.88;100519.61;179902;1261;44565;-75
2023/08/23 07:00:34;;;;;;;4.20;3.00;;;;;;;27.67;69.97;100525.48;179950;1259;59709;-76
2023/08/23 07:04:38;;;;;;;4.20;3.70;;;;;;;27.66;71.07;100526.39;180231;1262;43957;-76
2023/08/23 07:08:43;;;;;;;3.00;2.70;;;;;;;27.85;71.14;100531.55;180126;1260;46070;-76
2023/08/23 07:12:47;;;;;;;7.30;3.10;;;;;;;28.07;70.19;100537.27;180313;1263;46070;-76
2023/08/23 07:16:51;;;;;;;5.40;2.80;;;;;;;28.21;70.85;100541.52;180333;1260;44121;-76
2023/08/23 07:20:55;;;;;;;3.90;2.70;;;;;;;27.95;69.79;100543.98;180112;1262;58614;-77
2023/08/23 07:24:58;;;;;;;6.90;3.20;;;;;;;27.77;71.02;100545.57;180085;1259;43920;-80
2023/08/23 07:29:02;;;;;;;3.20;2.10;;;;;;;27.66;69.35;100546.31;179689;1262;45958;-81
2023/08/23 07:33:05;;;;;;;5.40;2.90;;;;;;;27.75;67.87;100547.61;178989;1262;45055;-81
2023/08/23 07:37:08;;;;;;;7.40;2.40;;;;;;;27.82;69.48;100550.06;179118;1262;45946;-81
2023/08/23 07:41:11;;;;;;;6.60;2.90;;;;;;;27.74;69.66;100553.90;179561;1261;57934;-82
2023/08/23 07:45:14;;;;;;;8.90;2.50;;;;;;;27.66;68.94;100551.61;179159;1264;46205;-81
2023/08/23 07:49:17;;;;;;;4.00;2.70;;;;;;;27.71;69.44;100555.58;179004;1260;45949;-81
2023/08/23 07:53:21;;;;;;;7.30;3.00;;;;;;;27.79;69.02;100551.14;179044;1260;46021;-80
2023/08/23 07:57:24;;;;;;;2.00;1.90;;;;;;;27.90;65.83;100556.16;179372;1260;45969;-81
2023/08/23 08:01:27;;;;;;;2.80;1.90;;;;;;;27.87;63.24;100559.15;179102;1260;59390;-81
2023/08/23 08:05:32;;;;;;;23.20;2.20;;;;;;;27.87;60.36;100558.15;179218;1260;45570;-82
2023/08/23 08:09:35;;;;;;;3.90;2.00;;;;;;;27.93;62.02;100559.14;179634;1259;45889;-77
2023/08/23 08:13:39;;;;;;;6.80;1.30;;;;;;;27.97;62.34;100561.53;180147;1261;45936;-77
2023/08/23 08:17:43;;;;;;;1.50;1.10;;;;;;;27.77;61.62;100559.23;180166;1261;45936;-77
2023/08/23 08:21:48;;;;;;;3.70;1.90;;;;;;;27.67;62.57;100562.31;180087;1259;58674;-77
2023/08/23 08:25:52;;;;;;;3.10;1.50;;;;;;;27.66;63.44;100564.17;180487;1261;44475;-76
2023/08/23 08:29:55;;;;;;;3.00;2.00;;;;;;;27.69;63.90;100559.02;180073;1260;45969;-76
2023/08/23 08:33:59;;;;;;;4.50;2.50;;;;;;;27.84;64.96;100562.19;180145;1261;46014;-77
2023/08/23 08:38:04;;;;;;;5.20;2.60;;;;;;;27.92;63.48;100562.95;180148;1260;46124;-76
2023/08/23 08:42:08;;;;;;;2.00;1.50;;;;;;;27.87;62.00;100565.76;180247;1261;58339;-77
2023/08/23 08:46:14;;;;;;;7.70;3.00;;;;;;;27.84;62.51;100567.81;180077;1263;45922;-77
2023/08/23 08:50:18;;;;;;;4.00;1.50;;;;;;;27.82;62.45;100563.27;180147;1260;45900;-77
2023/08/23 08:54:24;;;;;;;4.40;1.90;;;;;;;27.80;63.02;100560.61;180264;1259;49310;-76
2023/08/23 08:58:29;;;;;;;3.70;1.70;;;;;;;27.58;63.57;100566.81;180218;1261;46352;-76
2023/08/23 09:02:36;;;;;;;3.60;1.00;;;;;;;27.46;62.63;100566.83;180162;1263;58457;-76
2023/08/23 09:06:41;;;;;;;2.40;1.00;;;;;;;27.44;63.02;100568.29;180337;1259;46025;-76
2023/08/23 09:10:53;;;;;;;4.00;2.40;;;;;;;27.40;59.94;100565.34;180136;1260;44597;-77
2023/08/23 09:15:06;;;;;;;5.10;1.80;;;;;;;27.44;61.76;100564.85;179582;1260;43955;-82
2023/08/23 09:19:13;;;;;;;11.40;1.90;;;;;;;27.50;62.06;100557.64;178925;1260;46168;-82
2023/08/23 09:23:16;;;;;;;2.10;1.60;;;;;;;27.61;60.70;100557.91;179415;1260;57923;-79
2023/08/23 09:27:22;;;;;;;2.20;1.20;;;;;;;27.60;60.94;100565.63;179280;1259;46100;-82
2023/08/23 09:31:40;;;;;;;11.70;1.80;;;;;;;27.53;61.67;100568.70;179159;1260;45840;-82
2023/08/23 09:35:48;;;;;;;2.20;1.40;;;;;;;27.55;59.51;100565.33;178756;1260;46234;-80
2023/08/23 09:39:51;;;;;;;3.80;1.90;;;;;;;27.49;56.24;100565.04;179048;1260;45959;-80
2023/08/23 09:43:56;;;;;;;2.20;1.50;;;;;;;27.41;57.20;100558.16;179233;1260;60236;-82
2023/08/23 09:48:02;;;;;;;4.80;1.40;;;;;;;27.38;57.81;100561.40;179166;1260;45984;-82
2023/08/23 09:52:07;;;;;;;1.90;1.10;;;;;;;27.36;57.68;100558.57;179125;1261;46187;-81
2023/08/23 09:56:11;;;;;;;2.40;1.30;;;;;;;27.35;58.13;100561.54;179529;1260;44128;-82
2023/08/23 10:00:15;;;;;;;3.90;1.70;;;;;;;27.39;57.62;100559.45;178762;1260;44599;-80
2023/08/23 10:04:19;;;;;;;2.20;0.70;;;;;;;27.44;56.64;100560.02;179788;1260;58592;-76
2023/08/23 10:08:24;;;;;;;;;;;;;;;27.35;57.92;100561.45;180063;1260;44719;-76
2023/08/23 10:12:29;;;;;;;3.80;1.30;;;;;;;27.32;55.77;100557.41;180302;1260;45773;-75
2023/08/23 10:16:34;;;;;;;1.10;1.00;;;;;;;27.31;56.91;100553.52;180053;1260;45998;-76
2023/08/23 10:20:38;;;;;;;1.50;1.10;;;;;;;27.36;57.32;100552.11;180097;1260;46040;-77
2023/08/23 10:24:49;;;;;;;2.00;1.20;;;;;;;27.37;57.17;100546.74;179703;1258;58436;-81
2023/08/23 10:28:53;;;;;;;1.20;0.70;;;;;;;27.39;54.16;100545.26;179204;1261;45974;-81
2023/08/23 10:33:13;;;;;;;4.20;1.20;;;;;;;27.41;54.96;100542.37;178914;1263;46673;-81
2023/08/23 10:37:19;;;;;;;2.20;0.90;;;;;;;27.40;53.86;100539.06;179016;1262;44025;-82
2023/08/23 10:41:24;;;;;;;2.20;1.40;;;;;;;27.27;52.39;100534.63;178753;1260;46143;-81
2023/08/23 10:45:27;;;;;;;2.30;1.20;;;;;;;27.17;53.73;100530.42;178759;1260;57465;-81
2023/08/23 10:49:31;;;;;;;2.60;0.80;;;;;;;27.17;53.43;100529.60;178879;1263;46021;-81
2023/08/23 10:53:35;;;;;;;1.00;0.70;;;;;;;27.18;51.34;100527.34;178673;1261;45277;-82
2023/08/23 10:57:37;;;;;;;1.80;1.00;;;;;;;27.25;52.19;100521.13;178734;1260;46021;-82
2023/08/23 11:01:41;;;;;;;2.10;0.90;;;;;;;27.31;52.58;100517.72;179067;1261;46022;-82
2023/08/23 11:05:44;;;;;;;1.40;0.90;;;;;;;27.24;53.61;100514.27;178685;1261;59708;-81
2023/08/23 11:09:49;;;;;;;5.70;1.50;;;;;;;27.07;53.87;100510.23;178790;1260;46045;-81
2023/08/23 11:13:52;;;;;;;2.40;0.80;;;;;;;27.08;55.31;100508.92;178200;1262;46104;-82
2023/08/23 11:17:55;;;;;;;1.00;0.80;;;;;;;27.22;52.80;100504.61;178750;1261;46002;-81
2023/08/23 11:22:00;;;;;;;2.40;1.70;;;;;;;27.33;51.62;100507.73;178771;1261;45933;-82
2023/08/23 11:26:04;;;;;;;1.40;1.10;;;;;;;27.50;51.66;100504.21;179315;1261;59253;-82
2023/08/23 11:30:08;;;;;;;1.60;1.10;;;;;;;27.61;50.33;100498.95;179203;1254;45969;-77
2023/08/23 11:34:12;;;;;;;1.10;1.00;;;;;;;27.48;54.55;100499.41;180154;1259;45982;-77
2023/08/23 11:38:17;;;;;;;1.10;0.90;;;;;;;27.42;56.98;100500.38;179921;1262;44038;-77
2023/08/23 11:42:20;;;;;;;1.30;0.80;;;;;;;27.51;52.23;100500.67;180073;1263;45255;-77
2023/08/23 11:46:24;;;;;;;1.80;1.20;;;;;;;27.66;50.42;100500.75;179974;1260;57936;-77
2023/08/23 11:50:28;;;;;;;1.50;0.90;;;;;;;27.65;49.11;100505.48;179933;1261;44052;-77
2023/08/23 11:54:32;;;;;;;3.00;0.90;;;;;;;27.69;49.99;100504.15;179994;1261;46054;-77
2023/08/23 11:58:36;;;;;;;3.30;0.80;;;;;;;27.73;50.99;100506.73;179955;1260;44061;-77
2023/08/23 12:02:39;;;;;;;1.80;1.20;;;;;;;27.84;49.28;100504.46;180108;1260;44699;-77
2023/08/23 12:06:43;;;;;;;3.40;1.30;;;;;;;27.98;50.65;100501.86;180079;1259;58262;-77
2023/08/23 12:10:47;;;;;;;1.80;0.80;;;;;;;28.07;50.75;100501.46;180239;1260;44016;-77
2023/08/23 12:14:51;;;;;;;0.60;0.60;;;;;;;28.09;50.75;100498.39;180321;1260;45940;-78
2023/08/23 12:18:55;;;;;;;1.10;1.00;;;;;;;28.13;49.78;100498.41;180312;1259;43942;-78
2023/08/23 12:22:58;;;;;;;1.80;1.30;;;;;;;28.16;50.25;100493.96;180362;1260;43855;-77
2023/08/23 12:27:01;;;;;;;2.30;1.70;;;;;;;28.21;52.51;100491.30;180463;1260;59368;-77
2023/08/23 12:31:05;;;;;;;1.10;0.70;;;;;;;28.36;51.27;100484.80;180338;1259;43589;-78
2023/08/23 12:35:09;;;;;;;1.90;0.70;;;;;;;28.45;49.45;100482.37;180195;1260;46066;-77
2023/08/23 12:39:13;;;;;;;3.00;1.40;;;;;;;28.56;49.95;100483.48;180060;1260;43579;-77
2023/08/23 12:43:16;;;;;;;2.80;1.20;;;;;;;28.64;50.00;100479.96;180043;1261;44529;-77
2023/08/23 12:47:20;;;;;;;4.70;1.20;;;;;;;28.46;50.10;100478.71;180092;1261;58410;-77
2023/08/23 12:51:24;;;;;;;1.20;0.60;;;;;;;28.56;52.73;100476.08;180179;1259;43811;-78
2023/08/23 12:55:28;;;;;;;1.40;1.00;;;;;;;28.65;51.11;100480.20;180250;1261;44744;-78
2023/08/23 12:59:32;;;;;;;1.10;0.80;;;;;;;28.72;51.19;100478.88;180378;1260;43727;-79
2023/08/23 13:03:36;;;;;;;2.20;1.40;;;;;;;28.74;53.38;100475.42;180889;1260;44086;-78
2023/08/23 13:07:40;;;;;;;4.20;0.90;;;;;;;28.74;51.74;100466.00;180655;1260;58790;-79
2023/08/23 13:11:44;;;;;;;1.40;0.70;;;;;;;28.76;50.51;100463.35;180815;1261;44491;-78
2023/08/23 13:15:48;;;;;;;1.90;0.90;;;;;;;28.90;49.97;100462.62;180609;1259;43642;-77
2023/08/23 13:19:51;;;;;;;2.20;1.50;;;;;;;28.99;47.82;100455.55;180295;1260;43752;-77
2023/08/23 13:24:01;;;;;;;0.80;0.80;;;;;;;29.07;48.69;100453.39;180150;1262;44114;-77
2023/08/23 13:28:04;;;;;;;1.90;0.90;;;;;;;29.17;48.71;100446.20;180222;1260;58539;-77
2023/08/23 13:32:08;;;;;;;5.10;0.90;;;;;;;29.28;49.31;100440.95;180211;1260;46093;-78
2023/08/23 13:36:29;;;;;;;3.70;2.00;;;;;;;29.35;49.33;100435.21;180292;1260;45205;-77
2023/08/23 13:40:32;;;;;;;2.90;1.30;;;;;;;29.35;49.64;100437.29;180010;1260;44378;-78
2023/08/23 13:44:38;;;;;;;1.50;1.10;;;;;;;29.20;47.08;100432.06;180443;1260;46033;-79
2023/08/23 13:48:44;;;;;;;1.30;1.10;;;;;;;29.08;46.87;100432.01;181067;1260;58854;-78
2023/08/23 13:52:51;;;;;;;1.60;1.30;;;;;;;29.10;49.32;100431.77;180388;1260;46094;-78
2023/08/23 13:56:56;;;;;;;2.50;1.20;;;;;;;29.17;48.25;100426.52;180056;1262;46908;-81
2023/08/23 14:01:00;;;;;;;4.10;1.20;;;;;;;29.25;47.55;100425.48;179208;1262;43983;-82
2023/08/23 14:05:03;;;;;;;1.80;1.10;;;;;;;29.33;47.07;100423.02;179262;1262;46014;-82
2023/08/23 14:09:08;;;;;;;1.40;0.90;;;;;;;29.31;46.64;100419.20;179081;1262;58902;-82
2023/08/23 14:13:11;;;;;;;;;;;;;;;29.30;46.80;100417.88;178805;1264;44486;-82
2023/08/23 14:17:14;;;;;;;2.40;1.00;;;;;;;29.29;48.12;100416.33;179113;1262;44317;-82
2023/08/23 14:21:18;;;;;;;1.70;1.00;;;;;;;29.34;47.72;100411.42;178827;1262;45885;-83
2023/08/23 14:25:21;;;;;;;2.30;0.90;;;;;;;29.36;48.40;100401.77;178703;1262;46115;-83
2023/08/23 14:29:24;;;;;;;1.50;1.00;;;;;;;29.40;48.19;100397.00;178854;1263;57975;-83
2023/08/23 14:33:27;;;;;;;3.30;1.10;;;;;;;29.43;50.70;100397.19;178578;1262;45957;-83
2023/08/23 14:37:30;;;;;;;2.70;1.10;;;;;;;29.33;48.28;100396.66;179141;1262;44805;-82
2023/08/23 14:41:34;;;;;;;1.20;0.90;;;;;;;29.37;50.11;100396.79;178691;1266;46119;-85
2023/08/23 14:45:38;;;;;;;1.40;1.00;;;;;;;29.39;48.00;100388.33;178740;1264;46051;-84
2023/08/23 14:49:41;;;;;;;2.90;0.90;;;;;;;29.46;47.99;100384.36;178966;1262;59224;-84
2023/08/23 14:53:44;;;;;;;3.20;1.00;;;;;;;29.52;49.59;100383.41;178924;1264;45994;-83
2023/08/23 14:57:48;;;;;;;1.70;1.40;;;;;;;29.53;49.88;100385.23;179237;1261;44739;-84
2023/08/23 15:01:52;;;;;;;3.40;1.00;;;;;;;29.54;49.82;100384.59;179908;1264;43823;-81
2023/08/23 15:05:55;;;;;;;4.00;1.00;;;;;;;29.59;48.61;100388.45;179371;1262;45988;-82
2023/08/23 15:09:59;;;;;;;2.00;0.80;;;;;;;29.67;47.44;100383.86;179384;1262;58640;-82
2023/08/23 15:14:02;;;;;;;4.30;1.10;;;;;;;29.73;48.23;100385.70;179101;1263;45963;-83
2023/08/23 15:18:06;;;;;;;2.00;0.70;;;;;;;29.77;49.32;100386.25;179159;1262;46234;-82
2023/08/23 15:22:10;;;;;;;9.60;3.90;;;;;;;29.80;48.76;100386.34;179076;1262;44888;-84
2023/08/23 15:26:14;;;;;;;3.20;1.10;;;;;;;29.82;48.13;100384.61;179291;1262;45934;-82
2023/08/23 15:30:17;;;;;;;2.00;0.70;;;;;;;29.81;49.04;100384.75;178998;1264;59762;-84
2023/08/23 15:34:20;;;;;;;3.50;1.40;;;;;;;29.71;48.97;100385.07;178989;1262;46128;-84
2023/08/23 15:38:23;;;;;;;1.70;0.90;;;;;;;29.57;48.11;100381.30;179190;1262;45931;-84
2023/08/23 15:42:26;;;;;;;1.50;0.70;;;;;;;29.53;48.54;100381.29;179185;1262;45991;-83
2023/08/23 15:46:30;;;;;;;0.70;0.60;;;;;;;29.62;47.48;100378.46;179756;1266;44866;-85
2023/08/23 15:50:34;;;;;;;1.20;1.10;;;;;;;29.71;48.90;100380.69;179453;1262;89229;-79
2023/08/23 15:54:43;;;;;;;8.40;1.20;;;;;;;29.71;48.39;100381.95;180044;1262;46160;-77
2023/08/23 15:58:47;;;;;;;3.40;2.20;;;;;;;29.68;49.68;100388.05;180153;1264;44295;-78
2023/08/23 16:02:50;;;;;;;12.90;7.30;;;;;;;29.64;52.75;100382.83;179379;1262;45788;-78
2023/08/23 16:06:55;;;;;;;42.80;16.50;;;;;;;29.56;49.39;100380.90;179888;1262;45267;-77
2023/08/23 16:11:00;;;;;;;2.50;1.60;;;;;;;29.50;50.90;100379.11;179866;1266;58633;-78
2023/08/23 16:15:06;;;;;;;2.10;1.20;;;;;;;29.38;53.39;100375.05;179684;1262;43847;-78
2023/08/23 16:19:10;;;;;;;2.10;1.20;;;;;;;29.23;53.76;100373.50;179842;1266;43775;-78
2023/08/23 16:23:15;;;;;;;1.50;0.80;;;;;;;29.05;52.83;100374.20;179455;1262;45993;-78
2023/08/23 16:27:19;;;;;;;4.30;1.30;;;;;;;28.89;54.86;100377.31;179148;1262;46062;-78
2023/08/23 16:31:23;;;;;;;1.70;1.00;;;;;;;28.74;56.73;100369.05;179463;1262;58481;-78
2023/08/23 16:35:27;;;;;;;3.00;1.20;;;;;;;28.61;58.40;100368.66;179155;1262;45936;-78
2023/08/23 16:39:31;;;;;;;1.10;1.00;;;;;;;28.44;57.60;100369.77;179765;1262;45950;-78
2023/08/23 16:43:35;;;;;;;2.60;0.60;;;;;;;28.29;57.49;100364.27;179608;1262;46328;-78
2023/08/23 16:47:38;;;;;;;2.90;1.00;;;;;;;28.15;53.97;100367.63;179303;1262;51591;-78
2023/08/23 16:51:42;;;;;;;4.60;1.40;;;;;;;27.97;55.25;100365.97;179423;1262;58385;-78
2023/08/23 16:55:46;;;;;;;3.20;1.20;;;;;;;27.83;55.44;100366.55;179416;1263;44104;-78
2023/08/23 16:59:50;;;;;;;2.10;1.00;;;;;;;27.70;55.12;100370.63;179105;1266;46229;-78
2023/08/23 17:03:53;;;;;;;2.80;1.10;;;;;;;27.59;55.41;100373.86;179392;1262;44114;-78
2023/08/23 17:07:57;;;;;;;1.60;0.90;;;;;;;27.47;54.91;100374.34;180082;1262;44509;-78
2023/08/23 17:12:01;;;;;;;1.90;1.20;;;;;;;27.31;54.00;100371.15;179511;1266;58445;-79
2023/08/23 17:16:05;;;;;;;2.80;1.40;;;;;;;27.18;55.79;100369.92;179591;1262;44592;-78
2023/08/23 17:20:10;;;;;;;15.00;3.00;;;;;;;27.05;56.33;100373.45;179444;1264;44460;-79
2023/08/23 17:24:14;;;;;;;5.50;0.70;;;;;;;26.91;55.20;100371.67;179407;1262;44272;-78
2023/08/23 17:28:18;;;;;;;5.60;1.80;;;;;;;26.78;55.53;100371.80;179309;1262;46071;-79
2023/08/23 17:32:22;;;;;;;2.10;1.10;;;;;;;26.64;56.48;100372.69;179132;1262;59712;-78
2023/08/23 17:36:25;;;;;;;1.90;0.90;;;;;;;26.51;60.39;100376.64;179758;1262;46030;-78
2023/08/23 17:40:36;;;;;;;5.00;2.20;;;;;;;26.33;62.76;100383.11;179247;1263;44442;-78
2023/08/23 17:44:39;;;;;;;2.30;1.20;;;;;;;26.08;68.42;100383.89;179276;1262;46021;-79
2023/08/23 17:48:43;;;;;;;3.60;2.20;;;;;;;25.76;71.55;100378.59;179316;1262;45933;-79
2023/08/23 17:52:47;;;;;;;5.40;3.30;;;;;;;25.50;72.48;100381.54;179543;1262;58438;-79
2023/08/23 17:56:55;;;;;;;9.90;4.50;;;;;;;25.30;73.70;100383.62;179416;1264;45989;-79
2023/08/23 18:00:58;;;;;;;9.80;6.60;;;;;;;25.13;75.70;100383.70;179455;1267;44378;-78
2023/08/23 18:05:03;;;;;;;19.20;12.30;;;;;;;24.96;76.86;100394.36;178633;1266;221819;-79
2023/08/23 18:09:07;;;;;;;16.80;9.70;;;;;;;24.82;77.98;100408.38;178993;1262;45984;-78
2023/08/23 18:13:10;;;;;;;11.90;7.60;;;;;;;24.63;80.81;100408.73;179658;1262;59856;-78
2023/08/23 18:17:14;;;;;;;10.00;7.20;;;;;;;24.39;82.33;100412.17;179689;1266;43804;-78
2023/08/23 18:21:18;;;;;;;13.10;8.20;;;;;;;24.18;82.65;100417.77;179291;1266;46110;-78
2023/08/23 18:25:21;;;;;;;14.50;8.10;;;;;;;24.00;84.10;100409.45;179851;1262;46008;-78
2023/08/23 18:29:25;;;;;;;11.50;5.90;;;;;;;23.83;84.51;100407.48;179043;1264;46014;-79
2023/08/23 18:33:34;;;;;;;8.30;5.60;;;;;;;23.69;85.64;100413.55;178712;1262;59453;-78
2023/08/23 18:37:38;;;;;;;7.10;5.30;;;;;;;23.58;86.42;100420.57;179077;1266;44857;-78